Massillon, Ohio
Current Conditions -  °F | °C
As of 4:51 PM on Monday 26 Jan 2015 (Local Time) from KCAK Reporting Station
Haze Haze  
Wind Chill: 11°   Ceiling: 1200
Heat Index: 23°   Visibility: 4mi
Dew Point: 16°   Wind: 13mph
Humidity: 74%   Direction: 360°N
Pressure: 29.8"   Gusts: NA
Location:  40.79°N, 81.52°W
Report Text: KCAK 262151Z 36011KT 4SM HZ OVC012 M05/M09 A2980 RMK AO2 SLP108 T10501089 $
Loading
Personal Weather Stations






























Interactive Weather Map New forecast layout! Learn more

10-Day Weather Forecast

Advertisements
Track Severe Weather on mobile